sensor_id;sensor_type;location;lat;lon;timestamp;P1;durP1;ratioP1;P2;durP2;ratioP2
47335;SDS011;33068;51.990;5.926;2024-02-21T00:00:26;36.60;;;15.82;;
47335;SDS011;33068;51.990;5.926;2024-02-21T00:03:03;38.88;;;16.45;;
47335;SDS011;33068;51.990;5.926;2024-02-21T00:05:40;34.88;;;16.45;;
47335;SDS011;33068;51.990;5.926;2024-02-21T00:08:48;38.58;;;16.80;;
47335;SDS011;33068;51.990;5.926;2024-02-21T00:11:36;35.13;;;17.10;;
47335;SDS011;33068;51.990;5.926;2024-02-21T00:14:20;30.50;;;15.55;;
47335;SDS011;33068;51.990;5.926;2024-02-21T00:17:15;36.30;;;16.17;;
47335;SDS011;33068;51.990;5.926;2024-02-21T00:20:16;34.05;;;15.27;;
47335;SDS011;33068;51.990;5.926;2024-02-21T00:23:15;35.03;;;16.60;;
47335;SDS011;33068;51.990;5.926;2024-02-21T00:26:00;35.38;;;16.45;;
47335;SDS011;33068;51.990;5.926;2024-02-21T00:28:48;34.92;;;16.95;;
47335;SDS011;33068;51.990;5.926;2024-02-21T00:31:27;35.92;;;16.40;;
47335;SDS011;33068;51.990;5.926;2024-02-21T00:34:16;34.05;;;16.92;;
47335;SDS011;33068;51.990;5.926;2024-02-21T00:37:10;42.80;;;17.63;;
47335;SDS011;33068;51.990;5.926;2024-02-21T00:40:03;46.10;;;17.70;;
47335;SDS011;33068;51.990;5.926;2024-02-21T00:42:44;30.75;;;15.10;;
47335;SDS011;33068;51.990;5.926;2024-02-21T00:45:20;36.47;;;17.45;;
47335;SDS011;33068;51.990;5.926;2024-02-21T00:48:37;37.03;;;15.13;;
47335;SDS011;33068;51.990;5.926;2024-02-21T00:50:59;38.35;;;16.20;;
47335;SDS011;33068;51.990;5.926;2024-02-21T00:53:50;35.47;;;15.95;;
47335;SDS011;33068;51.990;5.926;2024-02-21T00:56:36;33.25;;;15.93;;
47335;SDS011;33068;51.990;5.926;2024-02-21T01:03:10;41.65;;;16.77;;
47335;SDS011;33068;51.990;5.926;2024-02-21T01:05:55;34.40;;;16.52;;
47335;SDS011;33068;51.990;5.926;2024-02-21T01:08:34;36.53;;;16.67;;
47335;SDS011;33068;51.990;5.926;2024-02-21T01:11:15;35.15;;;15.52;;
47335;SDS011;33068;51.990;5.926;2024-02-21T01:14:00;33.55;;;14.75;;
47335;SDS011;33068;51.990;5.926;2024-02-21T01:16:52;39.30;;;15.27;;
47335;SDS011;33068;51.990;5.926;2024-02-21T01:20:13;31.70;;;16.00;;
47335;SDS011;33068;51.990;5.926;2024-02-21T01:25:55;38.88;;;14.90;;
47335;SDS011;33068;51.990;5.926;2024-02-21T01:28:55;32.92;;;14.82;;
47335;SDS011;33068;51.990;5.926;2024-02-21T01:35:55;32.08;;;15.27;;
47335;SDS011;33068;51.990;5.926;2024-02-21T01:38:43;31.08;;;14.82;;
47335;SDS011;33068;51.990;5.926;2024-02-21T01:41:24;36.33;;;15.75;;
47335;SDS011;33068;51.990;5.926;2024-02-21T01:44:36;35.45;;;15.02;;
47335;SDS011;33068;51.990;5.926;2024-02-21T01:47:19;38.90;;;15.48;;
47335;SDS011;33068;51.990;5.926;2024-02-21T01:49:54;36.72;;;15.40;;
47335;SDS011;33068;51.990;5.926;2024-02-21T01:52:36;31.63;;;14.75;;
47335;SDS011;33068;51.990;5.926;2024-02-21T01:55:18;33.35;;;14.18;;
47335;SDS011;33068;51.990;5.926;2024-02-21T01:57:59;35.35;;;16.13;;
47335;SDS011;33068;51.990;5.926;2024-02-21T02:00:58;32.92;;;15.77;;
47335;SDS011;33068;51.990;5.926;2024-02-21T02:03:32;35.83;;;14.52;;
47335;SDS011;33068;51.990;5.926;2024-02-21T02:06:20;32.88;;;15.05;;
47335;SDS011;33068;51.990;5.926;2024-02-21T02:12:08;33.08;;;14.90;;
47335;SDS011;33068;51.990;5.926;2024-02-21T02:14:59;33.85;;;16.08;;
47335;SDS011;33068;51.990;5.926;2024-02-21T02:17:39;33.83;;;15.60;;
47335;SDS011;33068;51.990;5.926;2024-02-21T02:20:32;24.27;;;13.95;;
47335;SDS011;33068;51.990;5.926;2024-02-21T02:23:20;33.97;;;15.52;;
47335;SDS011;33068;51.990;5.926;2024-02-21T02:26:04;34.83;;;15.43;;
47335;SDS011;33068;51.990;5.926;2024-02-21T02:28:41;31.90;;;14.90;;
47335;SDS011;33068;51.990;5.926;2024-02-21T02:31:21;36.90;;;14.30;;
47335;SDS011;33068;51.990;5.926;2024-02-21T02:33:55;33.33;;;14.40;;
47335;SDS011;33068;51.990;5.926;2024-02-21T02:36:29;36.67;;;14.93;;
47335;SDS011;33068;51.990;5.926;2024-02-21T02:39:32;30.98;;;14.82;;
47335;SDS011;33068;51.990;5.926;2024-02-21T02:42:11;25.10;;;13.73;;
47335;SDS011;33068;51.990;5.926;2024-02-21T02:44:49;39.85;;;15.25;;
47335;SDS011;33068;51.990;5.926;2024-02-21T02:47:43;29.63;;;13.82;;
47335;SDS011;33068;51.990;5.926;2024-02-21T02:50:58;35.75;;;14.07;;
47335;SDS011;33068;51.990;5.926;2024-02-21T02:53:36;36.95;;;15.55;;
47335;SDS011;33068;51.990;5.926;2024-02-21T02:56:30;29.60;;;14.90;;
47335;SDS011;33068;51.990;5.926;2024-02-21T02:59:14;32.22;;;16.00;;
47335;SDS011;33068;51.990;5.926;2024-02-21T03:01:43;28.50;;;14.38;;
47335;SDS011;33068;51.990;5.926;2024-02-21T03:04:21;30.92;;;14.00;;
47335;SDS011;33068;51.990;5.926;2024-02-21T03:07:03;30.58;;;14.65;;
47335;SDS011;33068;51.990;5.926;2024-02-21T03:09:39;27.50;;;15.10;;
47335;SDS011;33068;51.990;5.926;2024-02-21T03:15:22;34.05;;;14.82;;
47335;SDS011;33068;51.990;5.926;2024-02-21T03:20:37;39.08;;;13.90;;
47335;SDS011;33068;51.990;5.926;2024-02-21T03:23:09;31.17;;;14.63;;
47335;SDS011;33068;51.990;5.926;2024-02-21T03:25:40;26.88;;;14.10;;
47335;SDS011;33068;51.990;5.926;2024-02-21T03:28:09;25.98;;;14.25;;
47335;SDS011;33068;51.990;5.926;2024-02-21T03:30:41;34.97;;;14.95;;
47335;SDS011;33068;51.990;5.926;2024-02-21T03:33:35;35.03;;;15.32;;
47335;SDS011;33068;51.990;5.926;2024-02-21T03:36:41;26.30;;;13.60;;
47335;SDS011;33068;51.990;5.926;2024-02-21T03:39:11;37.97;;;16.02;;
47335;SDS011;33068;51.990;5.926;2024-02-21T03:41:50;31.42;;;13.73;;
47335;SDS011;33068;51.990;5.926;2024-02-21T03:44:23;27.05;;;14.52;;
47335;SDS011;33068;51.990;5.926;2024-02-21T03:47:13;31.15;;;13.02;;
47335;SDS011;33068;51.990;5.926;2024-02-21T03:49:59;31.63;;;15.15;;
47335;SDS011;33068;51.990;5.926;2024-02-21T03:52:35;29.90;;;12.30;;
47335;SDS011;33068;51.990;5.926;2024-02-21T03:55:11;29.83;;;12.43;;
47335;SDS011;33068;51.990;5.926;2024-02-21T03:57:40;25.98;;;12.55;;
47335;SDS011;33068;51.990;5.926;2024-02-21T04:00:16;23.35;;;13.10;;
47335;SDS011;33068;51.990;5.926;2024-02-21T04:03:06;30.27;;;12.35;;
47335;SDS011;33068;51.990;5.926;2024-02-21T04:05:42;25.77;;;11.68;;
47335;SDS011;33068;51.990;5.926;2024-02-21T04:08:14;29.90;;;13.48;;
47335;SDS011;33068;51.990;5.926;2024-02-21T04:10:52;25.77;;;11.85;;
47335;SDS011;33068;51.990;5.926;2024-02-21T04:13:45;24.42;;;12.05;;
47335;SDS011;33068;51.990;5.926;2024-02-21T04:19:16;25.63;;;11.43;;
47335;SDS011;33068;51.990;5.926;2024-02-21T04:22:31;28.55;;;10.98;;
47335;SDS011;33068;51.990;5.926;2024-02-21T04:24:57;24.98;;;10.50;;
47335;SDS011;33068;51.990;5.926;2024-02-21T04:27:55;24.33;;;9.52;;
47335;SDS011;33068;51.990;5.926;2024-02-21T04:30:37;26.10;;;9.93;;
47335;SDS011;33068;51.990;5.926;2024-02-21T04:33:22;31.20;;;9.60;;
47335;SDS011;33068;51.990;5.926;2024-02-21T04:36:08;24.83;;;9.90;;
47335;SDS011;33068;51.990;5.926;2024-02-21T04:38:56;23.73;;;10.40;;
47335;SDS011;33068;51.990;5.926;2024-02-21T04:41:47;26.95;;;9.55;;
47335;SDS011;33068;51.990;5.926;2024-02-21T04:44:37;29.48;;;9.80;;
47335;SDS011;33068;51.990;5.926;2024-02-21T04:47:19;18.70;;;8.65;;
47335;SDS011;33068;51.990;5.926;2024-02-21T04:50:14;19.40;;;8.77;;
47335;SDS011;33068;51.990;5.926;2024-02-21T04:52:48;17.02;;;8.35;;
47335;SDS011;33068;51.990;5.926;2024-02-21T04:55:44;22.92;;;9.85;;
47335;SDS011;33068;51.990;5.926;2024-02-21T04:58:26;20.40;;;7.85;;
47335;SDS011;33068;51.990;5.926;2024-02-21T05:00:55;20.17;;;8.73;;
47335;SDS011;33068;51.990;5.926;2024-02-21T05:03:38;16.80;;;7.90;;
47335;SDS011;33068;51.990;5.926;2024-02-21T05:06:17;17.70;;;8.55;;
47335;SDS011;33068;51.990;5.926;2024-02-21T05:08:59;22.85;;;8.65;;
47335;SDS011;33068;51.990;5.926;2024-02-21T05:11:37;28.73;;;8.98;;
47335;SDS011;33068;51.990;5.926;2024-02-21T05:14:14;18.90;;;9.30;;
47335;SDS011;33068;51.990;5.926;2024-02-21T05:16:41;22.45;;;9.00;;
47335;SDS011;33068;51.990;5.926;2024-02-21T05:19:11;20.20;;;9.80;;
47335;SDS011;33068;51.990;5.926;2024-02-21T05:22:02;15.73;;;8.63;;
47335;SDS011;33068;51.990;5.926;2024-02-21T05:24:32;21.45;;;10.45;;
47335;SDS011;33068;51.990;5.926;2024-02-21T05:27:16;18.33;;;10.38;;
47335;SDS011;33068;51.990;5.926;2024-02-21T05:29:50;18.33;;;9.60;;
47335;SDS011;33068;51.990;5.926;2024-02-21T05:32:17;21.52;;;10.52;;
47335;SDS011;33068;51.990;5.926;2024-02-21T05:34:48;22.75;;;11.50;;
47335;SDS011;33068;51.990;5.926;2024-02-21T05:37:20;27.30;;;10.25;;
47335;SDS011;33068;51.990;5.926;2024-02-21T05:39:50;22.83;;;10.93;;
47335;SDS011;33068;51.990;5.926;2024-02-21T05:42:17;24.95;;;11.20;;
47335;SDS011;33068;51.990;5.926;2024-02-21T05:44:49;27.17;;;12.15;;
47335;SDS011;33068;51.990;5.926;2024-02-21T05:47:17;23.85;;;12.25;;
47335;SDS011;33068;51.990;5.926;2024-02-21T05:49:48;21.02;;;11.63;;
47335;SDS011;33068;51.990;5.926;2024-02-21T05:52:27;27.38;;;12.05;;
47335;SDS011;33068;51.990;5.926;2024-02-21T05:58:51;23.95;;;12.57;;
47335;SDS011;33068;51.990;5.926;2024-02-21T06:01:19;25.83;;;13.07;;
47335;SDS011;33068;51.990;5.926;2024-02-21T06:03:51;21.85;;;11.73;;
47335;SDS011;33068;51.990;5.926;2024-02-21T06:06:19;25.60;;;12.32;;
47335;SDS011;33068;51.990;5.926;2024-02-21T06:08:49;20.35;;;11.45;;
47335;SDS011;33068;51.990;5.926;2024-02-21T06:11:23;27.70;;;12.77;;
47335;SDS011;33068;51.990;5.926;2024-02-21T06:14:02;19.52;;;11.80;;
47335;SDS011;33068;51.990;5.926;2024-02-21T06:16:38;21.15;;;12.25;;
47335;SDS011;33068;51.990;5.926;2024-02-21T06:19:08;23.50;;;11.88;;
47335;SDS011;33068;51.990;5.926;2024-02-21T06:21:43;20.02;;;11.52;;
47335;SDS011;33068;51.990;5.926;2024-02-21T06:24:14;25.67;;;12.43;;
47335;SDS011;33068;51.990;5.926;2024-02-21T06:26:44;25.00;;;13.00;;
47335;SDS011;33068;51.990;5.926;2024-02-21T06:29:11;23.08;;;10.98;;
47335;SDS011;33068;51.990;5.926;2024-02-21T06:31:39;19.17;;;10.98;;
47335;SDS011;33068;51.990;5.926;2024-02-21T06:34:10;23.88;;;11.02;;
47335;SDS011;33068;51.990;5.926;2024-02-21T06:36:37;24.33;;;10.65;;
47335;SDS011;33068;51.990;5.926;2024-02-21T06:39:08;17.67;;;10.07;;
47335;SDS011;33068;51.990;5.926;2024-02-21T06:41:40;18.52;;;8.90;;
47335;SDS011;33068;51.990;5.926;2024-02-21T06:44:07;27.02;;;11.15;;
47335;SDS011;33068;51.990;5.926;2024-02-21T06:46:37;19.58;;;9.25;;
47335;SDS011;33068;51.990;5.926;2024-02-21T06:49:07;24.52;;;9.20;;
47335;SDS011;33068;51.990;5.926;2024-02-21T06:51:43;25.58;;;10.77;;
47335;SDS011;33068;51.990;5.926;2024-02-21T06:54:23;19.45;;;9.02;;
47335;SDS011;33068;51.990;5.926;2024-02-21T06:57:01;21.08;;;8.93;;
47335;SDS011;33068;51.990;5.926;2024-02-21T06:59:54;20.40;;;8.85;;
47335;SDS011;33068;51.990;5.926;2024-02-21T07:02:23;20.23;;;8.57;;
47335;SDS011;33068;51.990;5.926;2024-02-21T07:04:53;20.48;;;8.55;;
47335;SDS011;33068;51.990;5.926;2024-02-21T07:07:22;18.73;;;8.93;;
47335;SDS011;33068;51.990;5.926;2024-02-21T07:10:01;18.40;;;8.43;;
47335;SDS011;33068;51.990;5.926;2024-02-21T07:12:31;24.83;;;9.05;;
47335;SDS011;33068;51.990;5.926;2024-02-21T07:14:59;22.65;;;8.60;;
47335;SDS011;33068;51.990;5.926;2024-02-21T07:17:32;23.92;;;10.70;;
47335;SDS011;33068;51.990;5.926;2024-02-21T07:20:22;18.48;;;9.80;;
47335;SDS011;33068;51.990;5.926;2024-02-21T07:23:06;26.80;;;9.45;;
47335;SDS011;33068;51.990;5.926;2024-02-21T07:25:36;27.15;;;9.68;;
47335;SDS011;33068;51.990;5.926;2024-02-21T07:28:08;20.98;;;9.07;;
47335;SDS011;33068;51.990;5.926;2024-02-21T07:30:36;22.10;;;10.25;;
47335;SDS011;33068;51.990;5.926;2024-02-21T07:33:11;23.10;;;9.85;;
47335;SDS011;33068;51.990;5.926;2024-02-21T07:35:57;28.33;;;9.77;;
47335;SDS011;33068;51.990;5.926;2024-02-21T07:38:32;26.02;;;9.07;;
47335;SDS011;33068;51.990;5.926;2024-02-21T07:41:03;18.17;;;8.25;;
47335;SDS011;33068;51.990;5.926;2024-02-21T07:43:33;20.13;;;9.68;;
47335;SDS011;33068;51.990;5.926;2024-02-21T07:46:39;23.83;;;8.85;;
47335;SDS011;33068;51.990;5.926;2024-02-21T07:49:13;20.90;;;9.20;;
47335;SDS011;33068;51.990;5.926;2024-02-21T07:54:30;21.55;;;9.25;;
47335;SDS011;33068;51.990;5.926;2024-02-21T07:57:04;25.77;;;8.85;;
47335;SDS011;33068;51.990;5.926;2024-02-21T07:59:37;21.13;;;8.95;;
47335;SDS011;33068;51.990;5.926;2024-02-21T08:02:13;19.02;;;8.70;;
47335;SDS011;33068;51.990;5.926;2024-02-21T08:04:40;20.85;;;8.55;;
47335;SDS011;33068;51.990;5.926;2024-02-21T08:07:12;20.33;;;8.65;;
47335;SDS011;33068;51.990;5.926;2024-02-21T08:09:42;21.08;;;8.90;;
47335;SDS011;33068;51.990;5.926;2024-02-21T08:12:26;18.67;;;8.48;;
47335;SDS011;33068;51.990;5.926;2024-02-21T08:14:55;16.88;;;8.25;;
47335;SDS011;33068;51.990;5.926;2024-02-21T08:17:22;18.27;;;8.30;;
47335;SDS011;33068;51.990;5.926;2024-02-21T08:19:50;19.75;;;8.55;;
47335;SDS011;33068;51.990;5.926;2024-02-21T08:22:17;22.23;;;8.95;;
47335;SDS011;33068;51.990;5.926;2024-02-21T08:24:45;17.40;;;8.05;;
47335;SDS011;33068;51.990;5.926;2024-02-21T08:27:26;21.40;;;9.20;;
47335;SDS011;33068;51.990;5.926;2024-02-21T08:29:54;18.20;;;8.63;;
47335;SDS011;33068;51.990;5.926;2024-02-21T08:32:21;21.55;;;10.02;;
47335;SDS011;33068;51.990;5.926;2024-02-21T08:34:52;21.63;;;8.98;;
47335;SDS011;33068;51.990;5.926;2024-02-21T08:37:24;21.65;;;7.93;;
47335;SDS011;33068;51.990;5.926;2024-02-21T08:39:59;16.40;;;8.95;;
47335;SDS011;33068;51.990;5.926;2024-02-21T08:42:38;21.27;;;9.38;;
47335;SDS011;33068;51.990;5.926;2024-02-21T08:45:20;19.33;;;9.18;;
47335;SDS011;33068;51.990;5.926;2024-02-21T08:50:45;18.17;;;8.45;;
47335;SDS011;33068;51.990;5.926;2024-02-21T08:53:24;17.42;;;9.30;;
47335;SDS011;33068;51.990;5.926;2024-02-21T08:55:51;21.95;;;8.93;;
47335;SDS011;33068;51.990;5.926;2024-02-21T08:58:18;18.65;;;8.82;;
47335;SDS011;33068;51.990;5.926;2024-02-21T09:00:46;17.75;;;8.52;;
47335;SDS011;33068;51.990;5.926;2024-02-21T09:03:13;17.02;;;8.90;;
47335;SDS011;33068;51.990;5.926;2024-02-21T09:05:41;20.33;;;8.55;;
47335;SDS011;33068;51.990;5.926;2024-02-21T09:08:08;22.27;;;9.50;;
47335;SDS011;33068;51.990;5.926;2024-02-21T09:10:35;19.63;;;8.57;;
47335;SDS011;33068;51.990;5.926;2024-02-21T09:13:02;16.73;;;8.30;;
47335;SDS011;33068;51.990;5.926;2024-02-21T09:15:30;18.60;;;9.38;;
47335;SDS011;33068;51.990;5.926;2024-02-21T09:17:59;16.35;;;7.93;;
47335;SDS011;33068;51.990;5.926;2024-02-21T09:20:26;16.52;;;7.68;;
47335;SDS011;33068;51.990;5.926;2024-02-21T09:22:54;24.98;;;7.63;;
47335;SDS011;33068;51.990;5.926;2024-02-21T09:25:21;17.92;;;8.38;;
47335;SDS011;33068;51.990;5.926;2024-02-21T09:27:48;21.13;;;8.23;;
47335;SDS011;33068;51.990;5.926;2024-02-21T09:30:18;20.30;;;9.25;;
47335;SDS011;33068;51.990;5.926;2024-02-21T09:32:45;24.75;;;8.57;;
47335;SDS011;33068;51.990;5.926;2024-02-21T09:35:14;16.95;;;8.80;;
47335;SDS011;33068;51.990;5.926;2024-02-21T09:37:41;16.75;;;7.82;;
47335;SDS011;33068;51.990;5.926;2024-02-21T09:40:09;16.52;;;7.97;;
47335;SDS011;33068;51.990;5.926;2024-02-21T09:42:37;15.40;;;7.05;;
47335;SDS011;33068;51.990;5.926;2024-02-21T09:45:07;15.43;;;7.38;;
47335;SDS011;33068;51.990;5.926;2024-02-21T09:47:40;13.45;;;7.15;;
47335;SDS011;33068;51.990;5.926;2024-02-21T09:50:17;11.88;;;6.90;;
47335;SDS011;33068;51.990;5.926;2024-02-21T09:52:46;16.83;;;7.30;;
47335;SDS011;33068;51.990;5.926;2024-02-21T09:55:15;12.75;;;7.15;;
47335;SDS011;33068;51.990;5.926;2024-02-21T09:57:44;14.52;;;7.22;;
47335;SDS011;33068;51.990;5.926;2024-02-21T10:00:12;13.70;;;6.32;;
47335;SDS011;33068;51.990;5.926;2024-02-21T10:02:46;15.80;;;6.95;;
47335;SDS011;33068;51.990;5.926;2024-02-21T10:05:14;16.60;;;7.22;;
47335;SDS011;33068;51.990;5.926;2024-02-21T10:07:44;14.18;;;6.82;;
47335;SDS011;33068;51.990;5.926;2024-02-21T10:10:11;9.27;;;5.55;;
47335;SDS011;33068;51.990;5.926;2024-02-21T10:12:47;14.57;;;6.88;;
47335;SDS011;33068;51.990;5.926;2024-02-21T10:15:19;11.95;;;6.05;;
47335;SDS011;33068;51.990;5.926;2024-02-21T10:17:48;16.88;;;6.30;;
47335;SDS011;33068;51.990;5.926;2024-02-21T10:20:15;10.90;;;5.80;;
47335;SDS011;33068;51.990;5.926;2024-02-21T10:22:44;11.13;;;7.18;;
47335;SDS011;33068;51.990;5.926;2024-02-21T10:25:11;10.85;;;6.75;;
47335;SDS011;33068;51.990;5.926;2024-02-21T10:27:39;11.35;;;6.20;;
47335;SDS011;33068;51.990;5.926;2024-02-21T10:30:07;10.63;;;5.63;;
47335;SDS011;33068;51.990;5.926;2024-02-21T10:32:48;11.93;;;6.50;;
47335;SDS011;33068;51.990;5.926;2024-02-21T10:35:24;11.45;;;5.82;;
47335;SDS011;33068;51.990;5.926;2024-02-21T10:37:54;9.77;;;5.45;;
47335;SDS011;33068;51.990;5.926;2024-02-21T10:40:22;9.05;;;5.68;;
47335;SDS011;33068;51.990;5.926;2024-02-21T10:42:51;10.70;;;5.97;;
47335;SDS011;33068;51.990;5.926;2024-02-21T10:45:26;10.85;;;5.78;;
47335;SDS011;33068;51.990;5.926;2024-02-21T10:47:59;11.38;;;5.40;;
47335;SDS011;33068;51.990;5.926;2024-02-21T10:50:36;7.47;;;5.40;;
47335;SDS011;33068;51.990;5.926;2024-02-21T10:53:19;10.32;;;6.05;;
47335;SDS011;33068;51.990;5.926;2024-02-21T10:55:56;9.35;;;5.85;;
47335;SDS011;33068;51.990;5.926;2024-02-21T10:58:28;8.98;;;5.95;;
47335;SDS011;33068;51.990;5.926;2024-02-21T11:00:56;10.07;;;5.63;;
47335;SDS011;33068;51.990;5.926;2024-02-21T11:03:24;12.60;;;5.95;;
47335;SDS011;33068;51.990;5.926;2024-02-21T11:05:51;11.85;;;6.05;;
47335;SDS011;33068;51.990;5.926;2024-02-21T11:08:20;11.85;;;6.25;;
47335;SDS011;33068;51.990;5.926;2024-02-21T11:10:50;8.77;;;6.45;;
47335;SDS011;33068;51.990;5.926;2024-02-21T11:13:17;10.25;;;6.53;;
47335;SDS011;33068;51.990;5.926;2024-02-21T11:15:44;13.75;;;6.93;;
47335;SDS011;33068;51.990;5.926;2024-02-21T11:18:22;12.82;;;7.05;;
47335;SDS011;33068;51.990;5.926;2024-02-21T11:20:50;11.02;;;7.07;;
47335;SDS011;33068;51.990;5.926;2024-02-21T11:23:25;16.48;;;6.10;;
47335;SDS011;33068;51.990;5.926;2024-02-21T11:25:52;11.20;;;6.57;;
47335;SDS011;33068;51.990;5.926;2024-02-21T11:28:29;12.13;;;6.40;;
47335;SDS011;33068;51.990;5.926;2024-02-21T11:31:04;8.60;;;5.80;;
47335;SDS011;33068;51.990;5.926;2024-02-21T11:33:34;14.90;;;7.10;;
47335;SDS011;33068;51.990;5.926;2024-02-21T11:36:01;9.40;;;5.68;;
47335;SDS011;33068;51.990;5.926;2024-02-21T11:38:31;13.38;;;6.57;;
47335;SDS011;33068;51.990;5.926;2024-02-21T11:40:58;14.13;;;6.85;;
47335;SDS011;33068;51.990;5.926;2024-02-21T11:43:25;14.93;;;7.85;;
47335;SDS011;33068;51.990;5.926;2024-02-21T11:45:58;11.30;;;6.25;;
47335;SDS011;33068;51.990;5.926;2024-02-21T11:48:28;12.23;;;6.60;;
47335;SDS011;33068;51.990;5.926;2024-02-21T11:50:56;11.75;;;6.97;;
47335;SDS011;33068;51.990;5.926;2024-02-21T11:53:23;14.48;;;6.85;;
47335;SDS011;33068;51.990;5.926;2024-02-21T11:55:57;13.27;;;6.45;;
47335;SDS011;33068;51.990;5.926;2024-02-21T11:58:24;14.57;;;6.95;;
47335;SDS011;33068;51.990;5.926;2024-02-21T12:00:51;9.88;;;5.80;;
47335;SDS011;33068;51.990;5.926;2024-02-21T12:03:18;15.77;;;6.38;;
47335;SDS011;33068;51.990;5.926;2024-02-21T12:05:46;14.13;;;6.28;;
47335;SDS011;33068;51.990;5.926;2024-02-21T12:08:13;15.30;;;6.60;;
47335;SDS011;33068;51.990;5.926;2024-02-21T12:10:41;16.70;;;6.55;;
47335;SDS011;33068;51.990;5.926;2024-02-21T12:13:11;9.98;;;6.90;;
47335;SDS011;33068;51.990;5.926;2024-02-21T12:15:38;14.68;;;6.60;;
47335;SDS011;33068;51.990;5.926;2024-02-21T12:18:10;13.02;;;6.25;;
47335;SDS011;33068;51.990;5.926;2024-02-21T12:20:37;13.60;;;6.25;;
47335;SDS011;33068;51.990;5.926;2024-02-21T12:23:08;10.45;;;5.35;;
47335;SDS011;33068;51.990;5.926;2024-02-21T12:25:36;10.43;;;5.32;;
47335;SDS011;33068;51.990;5.926;2024-02-21T12:28:08;8.82;;;4.50;;
47335;SDS011;33068;51.990;5.926;2024-02-21T12:30:36;8.52;;;4.85;;
47335;SDS011;33068;51.990;5.926;2024-02-21T12:33:05;11.02;;;4.18;;
47335;SDS011;33068;51.990;5.926;2024-02-21T12:35:32;8.10;;;4.30;;
47335;SDS011;33068;51.990;5.926;2024-02-21T12:37:59;9.13;;;4.63;;
47335;SDS011;33068;51.990;5.926;2024-02-21T12:40:26;9.13;;;4.13;;
47335;SDS011;33068;51.990;5.926;2024-02-21T12:42:58;8.60;;;4.32;;
47335;SDS011;33068;51.990;5.926;2024-02-21T12:45:25;7.63;;;3.97;;
47335;SDS011;33068;51.990;5.926;2024-02-21T12:47:54;7.20;;;4.38;;
47335;SDS011;33068;51.990;5.926;2024-02-21T12:50:21;9.75;;;4.25;;
47335;SDS011;33068;51.990;5.926;2024-02-21T12:52:48;9.95;;;3.97;;
47335;SDS011;33068;51.990;5.926;2024-02-21T12:55:15;11.52;;;4.35;;
47335;SDS011;33068;51.990;5.926;2024-02-21T12:57:43;13.25;;;4.65;;
47335;SDS011;33068;51.990;5.926;2024-02-21T13:00:11;6.43;;;4.00;;
47335;SDS011;33068;51.990;5.926;2024-02-21T13:02:39;9.93;;;4.38;;
47335;SDS011;33068;51.990;5.926;2024-02-21T13:05:08;12.30;;;4.22;;
47335;SDS011;33068;51.990;5.926;2024-02-21T13:07:35;12.68;;;4.00;;
47335;SDS011;33068;51.990;5.926;2024-02-21T13:10:02;8.40;;;4.35;;
47335;SDS011;33068;51.990;5.926;2024-02-21T13:12:30;9.38;;;3.97;;
47335;SDS011;33068;51.990;5.926;2024-02-21T13:14:58;8.32;;;3.88;;
47335;SDS011;33068;51.990;5.926;2024-02-21T13:17:24;10.30;;;3.92;;
47335;SDS011;33068;51.990;5.926;2024-02-21T13:19:55;10.40;;;4.53;;
47335;SDS011;33068;51.990;5.926;2024-02-21T13:22:24;10.77;;;4.53;;
47335;SDS011;33068;51.990;5.926;2024-02-21T13:24:52;12.70;;;4.72;;
47335;SDS011;33068;51.990;5.926;2024-02-21T13:27:19;10.27;;;4.53;;
47335;SDS011;33068;51.990;5.926;2024-02-21T13:29:46;7.82;;;3.97;;
47335;SDS011;33068;51.990;5.926;2024-02-21T13:32:13;9.32;;;3.83;;
47335;SDS011;33068;51.990;5.926;2024-02-21T13:34:41;9.90;;;3.95;;
47335;SDS011;33068;51.990;5.926;2024-02-21T13:37:08;14.20;;;3.78;;
47335;SDS011;33068;51.990;5.926;2024-02-21T13:39:36;8.05;;;4.07;;
47335;SDS011;33068;51.990;5.926;2024-02-21T13:42:04;10.13;;;4.22;;
47335;SDS011;33068;51.990;5.926;2024-02-21T13:44:32;12.18;;;3.88;;
47335;SDS011;33068;51.990;5.926;2024-02-21T13:46:59;13.85;;;4.05;;
47335;SDS011;33068;51.990;5.926;2024-02-21T13:49:26;8.82;;;3.53;;
47335;SDS011;33068;51.990;5.926;2024-02-21T13:51:55;12.95;;;4.22;;
47335;SDS011;33068;51.990;5.926;2024-02-21T13:54:22;14.15;;;3.97;;
47335;SDS011;33068;51.990;5.926;2024-02-21T13:56:51;11.45;;;3.63;;
47335;SDS011;33068;51.990;5.926;2024-02-21T13:59:18;6.82;;;3.67;;
47335;SDS011;33068;51.990;5.926;2024-02-21T14:01:45;9.75;;;3.92;;
47335;SDS011;33068;51.990;5.926;2024-02-21T14:04:12;13.88;;;3.40;;
47335;SDS011;33068;51.990;5.926;2024-02-21T14:06:40;9.18;;;3.78;;
47335;SDS011;33068;51.990;5.926;2024-02-21T14:09:08;8.85;;;4.07;;
47335;SDS011;33068;51.990;5.926;2024-02-21T14:11:36;12.57;;;3.53;;
47335;SDS011;33068;51.990;5.926;2024-02-21T14:14:06;7.32;;;3.13;;
47335;SDS011;33068;51.990;5.926;2024-02-21T14:16:33;9.90;;;4.10;;
47335;SDS011;33068;51.990;5.926;2024-02-21T14:19:00;7.25;;;3.47;;
47335;SDS011;33068;51.990;5.926;2024-02-21T14:21:28;8.07;;;3.08;;
47335;SDS011;33068;51.990;5.926;2024-02-21T14:23:55;6.97;;;3.00;;
47335;SDS011;33068;51.990;5.926;2024-02-21T14:26:23;8.80;;;3.25;;
47335;SDS011;33068;51.990;5.926;2024-02-21T14:28:50;6.57;;;2.67;;
47335;SDS011;33068;51.990;5.926;2024-02-21T14:31:18;7.75;;;2.63;;
47335;SDS011;33068;51.990;5.926;2024-02-21T14:33:45;6.80;;;2.55;;
47335;SDS011;33068;51.990;5.926;2024-02-21T14:36:13;6.90;;;2.47;;
47335;SDS011;33068;51.990;5.926;2024-02-21T14:38:40;5.32;;;2.05;;
47335;SDS011;33068;51.990;5.926;2024-02-21T14:41:08;9.88;;;2.28;;
47335;SDS011;33068;51.990;5.926;2024-02-21T14:43:37;4.40;;;1.90;;
47335;SDS011;33068;51.990;5.926;2024-02-21T14:46:04;8.93;;;2.15;;
47335;SDS011;33068;51.990;5.926;2024-02-21T14:48:32;7.38;;;2.38;;
47335;SDS011;33068;51.990;5.926;2024-02-21T14:51:00;6.35;;;2.00;;
47335;SDS011;33068;51.990;5.926;2024-02-21T14:53:27;7.95;;;1.92;;
47335;SDS011;33068;51.990;5.926;2024-02-21T14:55:54;4.22;;;2.03;;
47335;SDS011;33068;51.990;5.926;2024-02-21T14:58:23;4.78;;;2.17;;
47335;SDS011;33068;51.990;5.926;2024-02-21T15:00:50;7.25;;;2.53;;
47335;SDS011;33068;51.990;5.926;2024-02-21T15:03:17;10.60;;;2.40;;
47335;SDS011;33068;51.990;5.926;2024-02-21T15:05:47;5.75;;;1.80;;
47335;SDS011;33068;51.990;5.926;2024-02-21T15:08:14;8.93;;;2.35;;
47335;SDS011;33068;51.990;5.926;2024-02-21T15:10:44;6.93;;;2.13;;
47335;SDS011;33068;51.990;5.926;2024-02-21T15:13:11;6.00;;;2.30;;
47335;SDS011;33068;51.990;5.926;2024-02-21T15:15:39;9.70;;;2.15;;
47335;SDS011;33068;51.990;5.926;2024-02-21T15:18:08;7.25;;;2.33;;
47335;SDS011;33068;51.990;5.926;2024-02-21T15:20:35;4.97;;;2.50;;
47335;SDS011;33068;51.990;5.926;2024-02-21T15:23:04;6.18;;;2.40;;
47335;SDS011;33068;51.990;5.926;2024-02-21T15:25:31;8.55;;;2.63;;
47335;SDS011;33068;51.990;5.926;2024-02-21T15:27:59;7.47;;;2.30;;
47335;SDS011;33068;51.990;5.926;2024-02-21T15:30:28;7.93;;;2.50;;
47335;SDS011;33068;51.990;5.926;2024-02-21T15:32:56;7.40;;;2.63;;
47335;SDS011;33068;51.990;5.926;2024-02-21T15:35:26;9.43;;;2.40;;
47335;SDS011;33068;51.990;5.926;2024-02-21T15:37:54;9.25;;;3.13;;
47335;SDS011;33068;51.990;5.926;2024-02-21T15:40:23;6.72;;;2.95;;
47335;SDS011;33068;51.990;5.926;2024-02-21T15:42:50;6.43;;;2.83;;
47335;SDS011;33068;51.990;5.926;2024-02-21T15:45:17;5.20;;;3.20;;
47335;SDS011;33068;51.990;5.926;2024-02-21T15:47:44;8.13;;;3.97;;